sensor_id;sensor_type;location;lat;lon;timestamp;P1;durP1;ratioP1;P2;durP2;ratioP2
86604;SDS011;77269;49.892;17.884;2024-03-22T00:00:16;9.85;;;8.43;;
86604;SDS011;77269;49.892;17.884;2024-03-22T00:01:26;10.98;;;8.63;;
86604;SDS011;77269;49.892;17.884;2024-03-22T00:02:17;9.40;;;8.25;;
86604;SDS011;77269;49.892;17.884;2024-03-22T00:03:07;11.43;;;8.98;;
86604;SDS011;77269;49.892;17.884;2024-03-22T00:03:58;11.75;;;8.68;;
86604;SDS011;77269;49.892;17.884;2024-03-22T00:04:49;11.85;;;8.77;;
86604;SDS011;77269;49.892;17.884;2024-03-22T00:05:39;10.82;;;8.15;;
86604;SDS011;77269;49.892;17.884;2024-03-22T00:06:29;10.02;;;8.18;;
86604;SDS011;77269;49.892;17.884;2024-03-22T00:07:20;9.52;;;7.55;;
86604;SDS011;77269;49.892;17.884;2024-03-22T00:08:11;10.50;;;8.15;;
86604;SDS011;77269;49.892;17.884;2024-03-22T00:09:01;10.00;;;7.55;;
86604;SDS011;77269;49.892;17.884;2024-03-22T00:09:52;9.23;;;7.25;;
86604;SDS011;77269;49.892;17.884;2024-03-22T00:10:42;11.13;;;8.35;;
86604;SDS011;77269;49.892;17.884;2024-03-22T00:11:32;9.43;;;7.50;;
86604;SDS011;77269;49.892;17.884;2024-03-22T00:12:23;8.63;;;6.97;;
86604;SDS011;77269;49.892;17.884;2024-03-22T00:13:14;9.18;;;7.18;;
86604;SDS011;77269;49.892;17.884;2024-03-22T00:14:04;9.82;;;7.32;;
86604;SDS011;77269;49.892;17.884;2024-03-22T00:14:54;8.73;;;7.10;;
86604;SDS011;77269;49.892;17.884;2024-03-22T00:15:45;9.85;;;7.22;;
86604;SDS011;77269;49.892;17.884;2024-03-22T00:16:36;9.10;;;7.30;;
86604;SDS011;77269;49.892;17.884;2024-03-22T00:17:26;7.82;;;6.28;;
86604;SDS011;77269;49.892;17.884;2024-03-22T00:18:17;10.40;;;7.57;;
86604;SDS011;77269;49.892;17.884;2024-03-22T00:19:07;9.32;;;7.10;;
86604;SDS011;77269;49.892;17.884;2024-03-22T00:19:58;8.38;;;7.13;;
86604;SDS011;77269;49.892;17.884;2024-03-22T00:20:48;8.80;;;6.88;;
86604;SDS011;77269;49.892;17.884;2024-03-22T00:21:39;10.50;;;7.18;;
86604;SDS011;77269;49.892;17.884;2024-03-22T00:22:29;8.60;;;6.88;;
86604;SDS011;77269;49.892;17.884;2024-03-22T00:23:19;9.88;;;7.13;;
86604;SDS011;77269;49.892;17.884;2024-03-22T00:24:10;8.90;;;7.30;;
86604;SDS011;77269;49.892;17.884;2024-03-22T00:25:01;8.88;;;7.00;;
86604;SDS011;77269;49.892;17.884;2024-03-22T00:25:51;10.30;;;7.30;;
86604;SDS011;77269;49.892;17.884;2024-03-22T00:26:41;8.90;;;7.18;;
86604;SDS011;77269;49.892;17.884;2024-03-22T00:27:32;9.23;;;6.95;;
86604;SDS011;77269;49.892;17.884;2024-03-22T00:28:22;9.75;;;7.25;;
86604;SDS011;77269;49.892;17.884;2024-03-22T00:29:13;8.00;;;6.30;;
86604;SDS011;77269;49.892;17.884;2024-03-22T00:30:04;9.13;;;6.70;;
86604;SDS011;77269;49.892;17.884;2024-03-22T00:30:57;9.45;;;6.50;;
86604;SDS011;77269;49.892;17.884;2024-03-22T00:31:48;9.85;;;7.35;;
86604;SDS011;77269;49.892;17.884;2024-03-22T00:32:38;9.77;;;7.15;;
86604;SDS011;77269;49.892;17.884;2024-03-22T00:33:29;8.68;;;6.55;;
86604;SDS011;77269;49.892;17.884;2024-03-22T00:34:19;9.27;;;6.65;;
86604;SDS011;77269;49.892;17.884;2024-03-22T00:35:10;9.20;;;7.07;;
86604;SDS011;77269;49.892;17.884;2024-03-22T00:36:00;8.80;;;6.57;;
86604;SDS011;77269;49.892;17.884;2024-03-22T00:36:51;8.73;;;6.65;;
86604;SDS011;77269;49.892;17.884;2024-03-22T00:37:42;9.05;;;7.03;;
86604;SDS011;77269;49.892;17.884;2024-03-22T00:38:32;10.00;;;6.97;;
86604;SDS011;77269;49.892;17.884;2024-03-22T00:39:22;10.48;;;7.75;;
86604;SDS011;77269;49.892;17.884;2024-03-22T00:40:13;8.80;;;7.43;;
86604;SDS011;77269;49.892;17.884;2024-03-22T00:41:04;11.02;;;8.35;;
86604;SDS011;77269;49.892;17.884;2024-03-22T00:41:54;9.38;;;7.40;;
86604;SDS011;77269;49.892;17.884;2024-03-22T00:42:44;10.80;;;8.05;;
86604;SDS011;77269;49.892;17.884;2024-03-22T00:43:35;12.05;;;9.00;;
86604;SDS011;77269;49.892;17.884;2024-03-22T00:44:25;11.00;;;8.70;;
86604;SDS011;77269;49.892;17.884;2024-03-22T00:45:16;11.30;;;8.27;;
86604;SDS011;77269;49.892;17.884;2024-03-22T00:46:06;10.20;;;7.40;;
86604;SDS011;77269;49.892;17.884;2024-03-22T00:46:59;9.52;;;7.35;;
86604;SDS011;77269;49.892;17.884;2024-03-22T00:47:50;8.98;;;7.50;;
86604;SDS011;77269;49.892;17.884;2024-03-22T00:48:40;10.32;;;7.53;;
86604;SDS011;77269;49.892;17.884;2024-03-22T00:49:31;10.95;;;7.85;;
86604;SDS011;77269;49.892;17.884;2024-03-22T00:50:22;9.82;;;7.40;;
86604;SDS011;77269;49.892;17.884;2024-03-22T00:51:12;9.65;;;7.13;;
86604;SDS011;77269;49.892;17.884;2024-03-22T00:52:03;9.90;;;7.30;;
86604;SDS011;77269;49.892;17.884;2024-03-22T00:52:54;10.10;;;7.60;;
86604;SDS011;77269;49.892;17.884;2024-03-22T00:53:45;11.05;;;7.63;;
86604;SDS011;77269;49.892;17.884;2024-03-22T00:54:35;10.13;;;7.65;;
86604;SDS011;77269;49.892;17.884;2024-03-22T00:55:25;10.65;;;7.90;;
86604;SDS011;77269;49.892;17.884;2024-03-22T00:56:16;12.55;;;7.82;;
86604;SDS011;77269;49.892;17.884;2024-03-22T00:57:07;11.23;;;8.02;;
86604;SDS011;77269;49.892;17.884;2024-03-22T00:57:57;10.70;;;7.93;;
86604;SDS011;77269;49.892;17.884;2024-03-22T00:58:47;10.43;;;7.60;;
86604;SDS011;77269;49.892;17.884;2024-03-22T00:59:38;10.43;;;7.57;;
86604;SDS011;77269;49.892;17.884;2024-03-22T01:00:28;10.48;;;7.10;;
86604;SDS011;77269;49.892;17.884;2024-03-22T01:01:19;10.38;;;7.68;;
86604;SDS011;77269;49.892;17.884;2024-03-22T01:02:10;10.57;;;7.80;;
86604;SDS011;77269;49.892;17.884;2024-03-22T01:03:00;10.95;;;7.72;;
86604;SDS011;77269;49.892;17.884;2024-03-22T01:03:50;10.18;;;7.45;;
86604;SDS011;77269;49.892;17.884;2024-03-22T01:04:41;8.73;;;7.00;;
86604;SDS011;77269;49.892;17.884;2024-03-22T01:05:32;11.18;;;7.85;;
86604;SDS011;77269;49.892;17.884;2024-03-22T01:06:22;10.60;;;7.22;;
86604;SDS011;77269;49.892;17.884;2024-03-22T01:07:13;10.90;;;7.78;;
86604;SDS011;77269;49.892;17.884;2024-03-22T01:08:03;9.93;;;7.40;;
86604;SDS011;77269;49.892;17.884;2024-03-22T01:08:54;10.35;;;7.78;;
86604;SDS011;77269;49.892;17.884;2024-03-22T01:09:45;10.13;;;7.47;;
86604;SDS011;77269;49.892;17.884;2024-03-22T01:10:35;9.95;;;7.68;;
86604;SDS011;77269;49.892;17.884;2024-03-22T01:11:26;11.23;;;8.02;;
86604;SDS011;77269;49.892;17.884;2024-03-22T01:12:16;10.80;;;7.72;;
86604;SDS011;77269;49.892;17.884;2024-03-22T01:13:07;10.40;;;8.25;;
86604;SDS011;77269;49.892;17.884;2024-03-22T01:13:57;10.55;;;7.82;;
86604;SDS011;77269;49.892;17.884;2024-03-22T01:14:48;10.32;;;7.97;;
86604;SDS011;77269;49.892;17.884;2024-03-22T01:15:38;10.55;;;7.82;;
86604;SDS011;77269;49.892;17.884;2024-03-22T01:16:29;10.65;;;8.07;;
86604;SDS011;77269;49.892;17.884;2024-03-22T01:17:19;9.95;;;7.68;;
86604;SDS011;77269;49.892;17.884;2024-03-22T01:18:10;12.52;;;8.65;;
86604;SDS011;77269;49.892;17.884;2024-03-22T01:19:00;11.60;;;8.48;;
86604;SDS011;77269;49.892;17.884;2024-03-22T01:19:51;11.00;;;8.23;;
86604;SDS011;77269;49.892;17.884;2024-03-22T01:20:41;13.32;;;9.35;;
86604;SDS011;77269;49.892;17.884;2024-03-22T01:21:32;13.63;;;9.40;;
86604;SDS011;77269;49.892;17.884;2024-03-22T01:22:22;13.82;;;9.27;;
86604;SDS011;77269;49.892;17.884;2024-03-22T01:23:13;12.32;;;9.27;;
86604;SDS011;77269;49.892;17.884;2024-03-22T01:24:03;11.32;;;8.73;;
86604;SDS011;77269;49.892;17.884;2024-03-22T01:24:54;11.85;;;8.65;;
86604;SDS011;77269;49.892;17.884;2024-03-22T01:25:44;13.98;;;9.65;;
86604;SDS011;77269;49.892;17.884;2024-03-22T01:26:35;11.63;;;8.75;;
86604;SDS011;77269;49.892;17.884;2024-03-22T01:27:26;12.23;;;8.23;;
86604;SDS011;77269;49.892;17.884;2024-03-22T01:28:16;13.07;;;9.55;;
86604;SDS011;77269;49.892;17.884;2024-03-22T01:29:06;13.38;;;9.73;;
86604;SDS011;77269;49.892;17.884;2024-03-22T01:29:57;12.57;;;9.38;;
86604;SDS011;77269;49.892;17.884;2024-03-22T01:30:48;12.48;;;8.80;;
86604;SDS011;77269;49.892;17.884;2024-03-22T01:31:38;13.13;;;8.52;;
86604;SDS011;77269;49.892;17.884;2024-03-22T01:32:28;12.68;;;8.60;;
86604;SDS011;77269;49.892;17.884;2024-03-22T01:33:19;13.70;;;9.43;;
86604;SDS011;77269;49.892;17.884;2024-03-22T01:34:09;13.70;;;9.60;;
86604;SDS011;77269;49.892;17.884;2024-03-22T01:35:00;16.02;;;10.25;;
86604;SDS011;77269;49.892;17.884;2024-03-22T01:35:50;15.65;;;9.95;;
86604;SDS011;77269;49.892;17.884;2024-03-22T01:36:41;13.32;;;9.32;;
86604;SDS011;77269;49.892;17.884;2024-03-22T01:37:31;13.07;;;9.82;;
86604;SDS011;77269;49.892;17.884;2024-03-22T01:38:22;13.73;;;9.57;;
86604;SDS011;77269;49.892;17.884;2024-03-22T01:39:13;11.98;;;8.85;;
86604;SDS011;77269;49.892;17.884;2024-03-22T01:40:03;11.27;;;8.43;;
86604;SDS011;77269;49.892;17.884;2024-03-22T01:40:54;10.43;;;7.70;;
86604;SDS011;77269;49.892;17.884;2024-03-22T01:41:45;10.25;;;7.95;;
86604;SDS011;77269;49.892;17.884;2024-03-22T01:42:35;12.10;;;9.18;;
86604;SDS011;77269;49.892;17.884;2024-03-22T01:43:26;11.35;;;9.18;;
86604;SDS011;77269;49.892;17.884;2024-03-22T01:44:16;12.90;;;8.77;;
86604;SDS011;77269;49.892;17.884;2024-03-22T01:45:12;12.38;;;9.02;;
86604;SDS011;77269;49.892;17.884;2024-03-22T01:46:04;12.38;;;8.98;;
86604;SDS011;77269;49.892;17.884;2024-03-22T01:46:54;10.80;;;8.40;;
86604;SDS011;77269;49.892;17.884;2024-03-22T01:47:46;11.48;;;8.68;;
86604;SDS011;77269;49.892;17.884;2024-03-22T01:48:36;11.68;;;8.30;;
86604;SDS011;77269;49.892;17.884;2024-03-22T01:49:27;12.15;;;8.95;;
86604;SDS011;77269;49.892;17.884;2024-03-22T01:50:18;11.18;;;8.20;;
86604;SDS011;77269;49.892;17.884;2024-03-22T01:51:08;13.68;;;9.68;;
86604;SDS011;77269;49.892;17.884;2024-03-22T01:52:00;10.93;;;8.00;;
86604;SDS011;77269;49.892;17.884;2024-03-22T01:52:50;11.68;;;7.93;;
86604;SDS011;77269;49.892;17.884;2024-03-22T01:53:41;8.88;;;7.75;;
86604;SDS011;77269;49.892;17.884;2024-03-22T01:54:31;10.85;;;8.05;;
86604;SDS011;77269;49.892;17.884;2024-03-22T01:55:22;11.48;;;8.30;;
86604;SDS011;77269;49.892;17.884;2024-03-22T01:56:13;11.65;;;8.30;;
86604;SDS011;77269;49.892;17.884;2024-03-22T01:57:04;11.82;;;8.52;;
86604;SDS011;77269;49.892;17.884;2024-03-22T01:57:55;11.52;;;8.50;;
86604;SDS011;77269;49.892;17.884;2024-03-22T01:58:45;12.25;;;8.43;;
86604;SDS011;77269;49.892;17.884;2024-03-22T01:59:36;12.38;;;8.73;;
86604;SDS011;77269;49.892;17.884;2024-03-22T02:00:27;9.38;;;7.20;;
86604;SDS011;77269;49.892;17.884;2024-03-22T02:01:18;11.75;;;8.57;;
86604;SDS011;77269;49.892;17.884;2024-03-22T02:02:08;11.05;;;8.00;;
86604;SDS011;77269;49.892;17.884;2024-03-22T02:02:59;12.20;;;8.45;;
86604;SDS011;77269;49.892;17.884;2024-03-22T02:03:50;11.32;;;8.35;;
86604;SDS011;77269;49.892;17.884;2024-03-22T02:04:40;11.52;;;7.75;;
86604;SDS011;77269;49.892;17.884;2024-03-22T02:05:30;11.60;;;7.47;;
86604;SDS011;77269;49.892;17.884;2024-03-22T02:06:21;10.68;;;7.88;;
86604;SDS011;77269;49.892;17.884;2024-03-22T02:07:11;11.70;;;8.23;;
86604;SDS011;77269;49.892;17.884;2024-03-22T02:08:02;10.77;;;7.55;;
86604;SDS011;77269;49.892;17.884;2024-03-22T02:08:53;9.70;;;7.85;;
86604;SDS011;77269;49.892;17.884;2024-03-22T02:09:44;11.07;;;8.30;;
86604;SDS011;77269;49.892;17.884;2024-03-22T02:10:34;10.68;;;7.80;;
86604;SDS011;77269;49.892;17.884;2024-03-22T02:11:28;10.63;;;8.07;;
86604;SDS011;77269;49.892;17.884;2024-03-22T02:12:19;12.02;;;8.80;;
86604;SDS011;77269;49.892;17.884;2024-03-22T02:13:09;15.32;;;9.20;;
86604;SDS011;77269;49.892;17.884;2024-03-22T02:14:00;12.05;;;8.65;;
86604;SDS011;77269;49.892;17.884;2024-03-22T02:14:50;12.73;;;8.20;;
86604;SDS011;77269;49.892;17.884;2024-03-22T02:15:40;14.00;;;9.32;;
86604;SDS011;77269;49.892;17.884;2024-03-22T02:16:31;11.77;;;8.50;;
86604;SDS011;77269;49.892;17.884;2024-03-22T02:17:22;11.73;;;8.60;;
86604;SDS011;77269;49.892;17.884;2024-03-22T02:18:12;12.68;;;8.52;;
86604;SDS011;77269;49.892;17.884;2024-03-22T02:19:03;12.27;;;8.00;;
86604;SDS011;77269;49.892;17.884;2024-03-22T02:19:53;10.98;;;8.13;;
86604;SDS011;77269;49.892;17.884;2024-03-22T02:20:44;14.25;;;8.90;;
86604;SDS011;77269;49.892;17.884;2024-03-22T02:21:34;11.88;;;8.20;;
86604;SDS011;77269;49.892;17.884;2024-03-22T02:22:26;14.60;;;8.48;;
86604;SDS011;77269;49.892;17.884;2024-03-22T02:23:17;14.07;;;9.77;;
86604;SDS011;77269;49.892;17.884;2024-03-22T02:24:07;14.93;;;9.80;;
86604;SDS011;77269;49.892;17.884;2024-03-22T02:24:58;15.13;;;9.75;;
86604;SDS011;77269;49.892;17.884;2024-03-22T02:25:48;14.55;;;9.73;;
86604;SDS011;77269;49.892;17.884;2024-03-22T02:26:39;14.52;;;9.80;;
86604;SDS011;77269;49.892;17.884;2024-03-22T02:27:29;16.00;;;10.00;;
86604;SDS011;77269;49.892;17.884;2024-03-22T02:28:20;14.63;;;9.60;;
86604;SDS011;77269;49.892;17.884;2024-03-22T02:29:10;16.30;;;9.63;;
86604;SDS011;77269;49.892;17.884;2024-03-22T02:30:01;15.52;;;10.35;;
86604;SDS011;77269;49.892;17.884;2024-03-22T02:30:51;14.95;;;9.73;;
86604;SDS011;77269;49.892;17.884;2024-03-22T02:31:42;16.50;;;10.48;;
86604;SDS011;77269;49.892;17.884;2024-03-22T02:32:32;15.88;;;10.40;;
86604;SDS011;77269;49.892;17.884;2024-03-22T02:33:23;15.27;;;9.95;;
86604;SDS011;77269;49.892;17.884;2024-03-22T02:34:13;15.00;;;10.10;;
86604;SDS011;77269;49.892;17.884;2024-03-22T02:35:04;14.70;;;9.05;;
86604;SDS011;77269;49.892;17.884;2024-03-22T02:35:55;13.20;;;9.15;;
86604;SDS011;77269;49.892;17.884;2024-03-22T02:36:46;12.85;;;8.68;;
86604;SDS011;77269;49.892;17.884;2024-03-22T02:37:36;14.13;;;9.23;;
86604;SDS011;77269;49.892;17.884;2024-03-22T02:38:26;14.73;;;9.15;;
86604;SDS011;77269;49.892;17.884;2024-03-22T02:39:17;16.25;;;10.77;;
86604;SDS011;77269;49.892;17.884;2024-03-22T02:40:08;16.27;;;11.32;;
86604;SDS011;77269;49.892;17.884;2024-03-22T02:40:59;14.48;;;10.23;;
86604;SDS011;77269;49.892;17.884;2024-03-22T02:41:49;14.95;;;9.98;;
86604;SDS011;77269;49.892;17.884;2024-03-22T02:42:40;13.73;;;10.00;;
86604;SDS011;77269;49.892;17.884;2024-03-22T02:43:30;14.05;;;9.77;;
86604;SDS011;77269;49.892;17.884;2024-03-22T02:44:21;13.45;;;9.43;;
86604;SDS011;77269;49.892;17.884;2024-03-22T02:45:11;13.13;;;8.43;;
86604;SDS011;77269;49.892;17.884;2024-03-22T02:46:01;13.98;;;9.70;;
86604;SDS011;77269;49.892;17.884;2024-03-22T02:46:52;13.27;;;8.95;;
86604;SDS011;77269;49.892;17.884;2024-03-22T02:47:43;12.32;;;8.52;;
86604;SDS011;77269;49.892;17.884;2024-03-22T02:48:33;13.55;;;9.40;;
86604;SDS011;77269;49.892;17.884;2024-03-22T02:49:24;14.80;;;9.40;;
86604;SDS011;77269;49.892;17.884;2024-03-22T02:50:15;15.63;;;9.98;;
86604;SDS011;77269;49.892;17.884;2024-03-22T02:51:06;19.30;;;11.73;;
86604;SDS011;77269;49.892;17.884;2024-03-22T02:51:56;23.67;;;12.82;;
86604;SDS011;77269;49.892;17.884;2024-03-22T02:52:48;23.88;;;12.93;;
86604;SDS011;77269;49.892;17.884;2024-03-22T02:53:38;26.10;;;13.73;;
86604;SDS011;77269;49.892;17.884;2024-03-22T02:54:29;23.83;;;13.77;;
86604;SDS011;77269;49.892;17.884;2024-03-22T02:55:20;25.30;;;13.23;;
86604;SDS011;77269;49.892;17.884;2024-03-22T02:56:10;25.55;;;13.55;;
86604;SDS011;77269;49.892;17.884;2024-03-22T02:57:00;24.67;;;13.50;;
86604;SDS011;77269;49.892;17.884;2024-03-22T02:57:51;24.05;;;12.82;;
86604;SDS011;77269;49.892;17.884;2024-03-22T02:58:42;25.75;;;13.60;;
86604;SDS011;77269;49.892;17.884;2024-03-22T02:59:32;25.90;;;13.35;;
86604;SDS011;77269;49.892;17.884;2024-03-22T03:00:23;23.00;;;13.30;;
86604;SDS011;77269;49.892;17.884;2024-03-22T03:01:13;22.17;;;11.82;;
86604;SDS011;77269;49.892;17.884;2024-03-22T03:02:04;19.38;;;11.93;;
86604;SDS011;77269;49.892;17.884;2024-03-22T03:02:54;22.17;;;12.73;;
86604;SDS011;77269;49.892;17.884;2024-03-22T03:03:45;27.50;;;14.90;;
86604;SDS011;77269;49.892;17.884;2024-03-22T03:04:35;28.83;;;15.20;;
86604;SDS011;77269;49.892;17.884;2024-03-22T03:05:26;32.70;;;17.00;;
86604;SDS011;77269;49.892;17.884;2024-03-22T03:06:17;38.17;;;18.77;;
86604;SDS011;77269;49.892;17.884;2024-03-22T03:07:07;43.05;;;19.13;;
86604;SDS011;77269;49.892;17.884;2024-03-22T03:07:57;46.65;;;20.88;;
86604;SDS011;77269;49.892;17.884;2024-03-22T03:08:48;48.33;;;19.98;;
86604;SDS011;77269;49.892;17.884;2024-03-22T03:09:39;41.75;;;18.95;;
86604;SDS011;77269;49.892;17.884;2024-03-22T03:10:29;42.50;;;19.92;;
86604;SDS011;77269;49.892;17.884;2024-03-22T03:11:20;40.00;;;18.48;;
86604;SDS011;77269;49.892;17.884;2024-03-22T03:12:10;37.90;;;18.40;;
86604;SDS011;77269;49.892;17.884;2024-03-22T03:13:00;37.08;;;17.38;;
86604;SDS011;77269;49.892;17.884;2024-03-22T03:13:51;32.25;;;16.08;;
86604;SDS011;77269;49.892;17.884;2024-03-22T03:14:42;31.33;;;15.55;;
86604;SDS011;77269;49.892;17.884;2024-03-22T03:15:32;28.60;;;16.00;;
86604;SDS011;77269;49.892;17.884;2024-03-22T03:16:22;25.35;;;13.95;;
86604;SDS011;77269;49.892;17.884;2024-03-22T03:17:13;33.72;;;16.80;;
86604;SDS011;77269;49.892;17.884;2024-03-22T03:18:04;32.45;;;16.63;;
86604;SDS011;77269;49.892;17.884;2024-03-22T03:18:54;30.83;;;15.85;;
86604;SDS011;77269;49.892;17.884;2024-03-22T03:19:45;28.50;;;14.43;;
86604;SDS011;77269;49.892;17.884;2024-03-22T03:20:35;29.27;;;15.13;;
86604;SDS011;77269;49.892;17.884;2024-03-22T03:21:26;25.63;;;14.07;;
86604;SDS011;77269;49.892;17.884;2024-03-22T03:22:16;28.05;;;13.77;;
86604;SDS011;77269;49.892;17.884;2024-03-22T03:23:07;25.15;;;13.75;;
86604;SDS011;77269;49.892;17.884;2024-03-22T03:23:57;22.02;;;11.90;;
86604;SDS011;77269;49.892;17.884;2024-03-22T03:24:47;19.77;;;11.90;;
86604;SDS011;77269;49.892;17.884;2024-03-22T03:25:38;21.88;;;12.90;;
86604;SDS011;77269;49.892;17.884;2024-03-22T03:26:29;20.48;;;11.65;;
86604;SDS011;77269;49.892;17.884;2024-03-22T03:27:19;18.60;;;11.05;;
86604;SDS011;77269;49.892;17.884;2024-03-22T03:28:10;17.58;;;11.23;;
86604;SDS011;77269;49.892;17.884;2024-03-22T03:29:00;16.90;;;11.23;;
86604;SDS011;77269;49.892;17.884;2024-03-22T03:29:51;19.52;;;11.25;;
86604;SDS011;77269;49.892;17.884;2024-03-22T03:30:41;20.45;;;12.35;;
86604;SDS011;77269;49.892;17.884;2024-03-22T03:31:31;22.15;;;11.90;;
86604;SDS011;77269;49.892;17.884;2024-03-22T03:32:22;17.65;;;10.50;;
86604;SDS011;77269;49.892;17.884;2024-03-22T03:33:13;18.38;;;10.50;;
86604;SDS011;77269;49.892;17.884;2024-03-22T03:34:03;15.15;;;9.93;;
86604;SDS011;77269;49.892;17.884;2024-03-22T03:34:54;13.93;;;8.75;;
86604;SDS011;77269;49.892;17.884;2024-03-22T03:35:47;12.65;;;8.63;;
86604;SDS011;77269;49.892;17.884;2024-03-22T03:36:38;13.63;;;8.77;;
86604;SDS011;77269;49.892;17.884;2024-03-22T03:37:28;14.23;;;9.43;;
86604;SDS011;77269;49.892;17.884;2024-03-22T03:38:19;14.73;;;9.68;;
86604;SDS011;77269;49.892;17.884;2024-03-22T03:39:09;24.58;;;13.60;;
86604;SDS011;77269;49.892;17.884;2024-03-22T03:40:00;31.50;;;14.75;;
86604;SDS011;77269;49.892;17.884;2024-03-22T03:40:51;37.17;;;15.95;;
86604;SDS011;77269;49.892;17.884;2024-03-22T03:41:41;32.40;;;15.55;;
86604;SDS011;77269;49.892;17.884;2024-03-22T03:42:32;39.45;;;18.02;;
86604;SDS011;77269;49.892;17.884;2024-03-22T03:43:22;40.70;;;17.15;;
86604;SDS011;77269;49.892;17.884;2024-03-22T03:44:13;34.63;;;15.93;;
86604;SDS011;77269;49.892;17.884;2024-03-22T03:45:03;31.80;;;15.05;;
86604;SDS011;77269;49.892;17.884;2024-03-22T03:45:55;29.70;;;13.85;;
86604;SDS011;77269;49.892;17.884;2024-03-22T03:46:45;30.17;;;14.32;;
86604;SDS011;77269;49.892;17.884;2024-03-22T03:47:35;31.52;;;13.48;;
86604;SDS011;77269;49.892;17.884;2024-03-22T03:48:26;32.13;;;14.50;;
86604;SDS011;77269;49.892;17.884;2024-03-22T03:49:17;30.30;;;14.43;;
86604;SDS011;77269;49.892;17.884;2024-03-22T03:50:07;28.75;;;13.25;;
86604;SDS011;77269;49.892;17.884;2024-03-22T03:50:59;24.98;;;12.35;;
86604;SDS011;77269;49.892;17.884;2024-03-22T03:51:49;24.35;;;11.95;;
86604;SDS011;77269;49.892;17.884;2024-03-22T03:52:40;20.42;;;10.35;;
86604;SDS011;77269;49.892;17.884;2024-03-22T03:53:30;16.27;;;9.88;;
86604;SDS011;77269;49.892;17.884;2024-03-22T03:54:21;15.20;;;9.32;;
86604;SDS011;77269;49.892;17.884;2024-03-22T03:55:11;13.93;;;8.23;;
86604;SDS011;77269;49.892;17.884;2024-03-22T03:56:02;13.50;;;8.13;;
86604;SDS011;77269;49.892;17.884;2024-03-22T03:56:52;11.85;;;7.82;;
86604;SDS011;77269;49.892;17.884;2024-03-22T03:57:43;11.93;;;7.80;;
86604;SDS011;77269;49.892;17.884;2024-03-22T03:58:33;13.57;;;8.48;;
86604;SDS011;77269;49.892;17.884;2024-03-22T03:59:24;12.30;;;8.30;;
86604;SDS011;77269;49.892;17.884;2024-03-22T04:00:14;16.75;;;9.57;;
86604;SDS011;77269;49.892;17.884;2024-03-22T04:01:06;15.18;;;9.75;;
86604;SDS011;77269;49.892;17.884;2024-03-22T04:01:57;16.65;;;9.85;;
86604;SDS011;77269;49.892;17.884;2024-03-22T04:02:50;20.15;;;10.50;;
86604;SDS011;77269;49.892;17.884;2024-03-22T04:03:40;21.05;;;11.25;;
86604;SDS011;77269;49.892;17.884;2024-03-22T04:04:31;18.48;;;10.00;;
86604;SDS011;77269;49.892;17.884;2024-03-22T04:05:22;15.73;;;9.25;;
86604;SDS011;77269;49.892;17.884;2024-03-22T04:06:12;15.18;;;9.77;;
86604;SDS011;77269;49.892;17.884;2024-03-22T04:07:02;17.08;;;10.45;;
86604;SDS011;77269;49.892;17.884;2024-03-22T04:07:53;15.57;;;9.02;;
86604;SDS011;77269;49.892;17.884;2024-03-22T04:08:44;14.95;;;9.35;;
86604;SDS011;77269;49.892;17.884;2024-03-22T04:09:34;14.70;;;8.68;;
86604;SDS011;77269;49.892;17.884;2024-03-22T04:10:25;15.90;;;9.75;;
86604;SDS011;77269;49.892;17.884;2024-03-22T04:11:15;15.63;;;9.55;;
86604;SDS011;77269;49.892;17.884;2024-03-22T04:12:06;17.88;;;11.20;;
86604;SDS011;77269;49.892;17.884;2024-03-22T04:12:57;20.25;;;10.90;;
86604;SDS011;77269;49.892;17.884;2024-03-22T04:13:47;19.17;;;10.75;;
86604;SDS011;77269;49.892;17.884;2024-03-22T04:14:38;19.15;;;10.23;;
86604;SDS011;77269;49.892;17.884;2024-03-22T04:15:29;20.17;;;11.65;;
86604;SDS011;77269;49.892;17.884;2024-03-22T04:16:24;22.13;;;11.93;;
86604;SDS011;77269;49.892;17.884;2024-03-22T04:17:14;20.30;;;11.75;;
86604;SDS011;77269;49.892;17.884;2024-03-22T04:18:05;21.92;;;11.82;;
86604;SDS011;77269;49.892;17.884;2024-03-22T04:18:55;20.88;;;11.50;;
86604;SDS011;77269;49.892;17.884;2024-03-22T04:19:46;20.38;;;11.18;;
86604;SDS011;77269;49.892;17.884;2024-03-22T04:20:39;17.50;;;10.98;;
86604;SDS011;77269;49.892;17.884;2024-03-22T04:21:30;17.00;;;10.90;;
86604;SDS011;77269;49.892;17.884;2024-03-22T04:22:20;17.50;;;11.40;;
86604;SDS011;77269;49.892;17.884;2024-03-22T04:23:11;17.63;;;11.10;;
86604;SDS011;77269;49.892;17.884;2024-03-22T04:24:01;18.65;;;11.63;;
86604;SDS011;77269;49.892;17.884;2024-03-22T04:24:52;19.20;;;11.77;;
86604;SDS011;77269;49.892;17.884;2024-03-22T04:25:51;16.85;;;10.07;;
86604;SDS011;77269;49.892;17.884;2024-03-22T04:26:45;13.85;;;8.77;;
86604;SDS011;77269;49.892;17.884;2024-03-22T04:27:36;15.52;;;9.70;;
86604;SDS011;77269;49.892;17.884;2024-03-22T04:28:27;14.82;;;9.40;;
86604;SDS011;77269;49.892;17.884;2024-03-22T04:29:17;16.88;;;10.40;;
86604;SDS011;77269;49.892;17.884;2024-03-22T04:30:09;15.68;;;10.20;;
86604;SDS011;77269;49.892;17.884;2024-03-22T04:31:06;15.65;;;10.15;;
86604;SDS011;77269;49.892;17.884;2024-03-22T04:31:58;14.48;;;9.63;;
86604;SDS011;77269;49.892;17.884;2024-03-22T04:32:48;12.90;;;9.48;;
86604;SDS011;77269;49.892;17.884;2024-03-22T04:33:39;16.30;;;10.82;;
86604;SDS011;77269;49.892;17.884;2024-03-22T04:34:29;14.43;;;9.73;;
86604;SDS011;77269;49.892;17.884;2024-03-22T04:35:20;13.43;;;10.00;;
86604;SDS011;77269;49.892;17.884;2024-03-22T04:36:10;12.70;;;9.40;;
86604;SDS011;77269;49.892;17.884;2024-03-22T04:37:01;13.05;;;8.93;;
86604;SDS011;77269;49.892;17.884;2024-03-22T04:37:51;12.63;;;8.43;;
86604;SDS011;77269;49.892;17.884;2024-03-22T04:38:41;11.48;;;8.57;;
86604;SDS011;77269;49.892;17.884;2024-03-22T04:39:32;10.93;;;7.90;;
86604;SDS011;77269;49.892;17.884;2024-03-22T04:40:23;12.57;;;8.65;;
86604;SDS011;77269;49.892;17.884;2024-03-22T04:41:13;11.35;;;8.32;;
86604;SDS011;77269;49.892;17.884;2024-03-22T04:42:03;11.80;;;8.13;;
86604;SDS011;77269;49.892;17.884;2024-03-22T04:42:54;12.75;;;9.00;;
86604;SDS011;77269;49.892;17.884;2024-03-22T04:43:45;11.85;;;8.75;;
86604;SDS011;77269;49.892;17.884;2024-03-22T04:44:35;15.23;;;9.18;;
86604;SDS011;77269;49.892;17.884;2024-03-22T04:45:26;12.63;;;8.82;;
86604;SDS011;77269;49.892;17.884;2024-03-22T04:46:16;12.98;;;9.00;;
86604;SDS011;77269;49.892;17.884;2024-03-22T04:47:06;13.38;;;9.63;;
86604;SDS011;77269;49.892;17.884;2024-03-22T04:47:57;11.40;;;7.97;;
86604;SDS011;77269;49.892;17.884;2024-03-22T04:48:48;12.57;;;8.43;;
86604;SDS011;77269;49.892;17.884;2024-03-22T04:49:38;13.43;;;9.10;;
86604;SDS011;77269;49.892;17.884;2024-03-22T04:50:28;12.30;;;8.73;;
86604;SDS011;77269;49.892;17.884;2024-03-22T04:51:19;12.75;;;8.68;;
86604;SDS011;77269;49.892;17.884;2024-03-22T04:52:10;11.52;;;7.97;;
86604;SDS011;77269;49.892;17.884;2024-03-22T04:53:00;12.18;;;7.82;;
86604;SDS011;77269;49.892;17.884;2024-03-22T04:53:51;11.60;;;8.02;;
86604;SDS011;77269;49.892;17.884;2024-03-22T04:54:41;12.07;;;7.97;;
86604;SDS011;77269;49.892;17.884;2024-03-22T04:55:32;11.82;;;8.75;;